Time;durP1;ratioP1;P1;durP2;ratioP2;P2;SDS_P1;SDS_P2;PMS_P1;PMS_P2;Temp;Humidity;BMP_temperature;BMP_pressure;BME280_temperature;BME280_humidity;BME280_pressure;Samples;Min_cycle;Max_cycle;Signal;HPM_P1;HPM_P2
2021/08/26 00:01:14;;;;;;;1.77;1.52;;;;;;;14.22;100.00;100556.56;4952720;28;20051;-83
2021/08/26 00:06:25;;;;;;;4.68;2.10;;;;;;;14.21;100.00;100562.72;4965412;28;20042;-80
2021/08/26 00:08:54;;;;;;;3.10;1.98;;;;;;;14.20;100.00;100557.50;4953684;28;20140;-77
2021/08/26 00:11:23;;;;;;;2.88;1.30;;;;;;;14.17;100.00;100552.31;4950428;28;20050;-82
2021/08/26 00:13:52;;;;;;;5.25;1.67;;;;;;;14.15;100.00;100562.88;4953360;28;20396;-79
2021/08/26 00:16:26;;;;;;;6.40;1.63;;;;;;;14.15;100.00;100573.41;4952142;28;20509;-81
2021/08/26 00:18:54;;;;;;;5.50;2.33;;;;;;;14.15;100.00;100564.66;4947171;28;20065;-80
2021/08/26 00:21:22;;;;;;;5.47;2.00;;;;;;;14.17;100.00;100562.84;4969592;28;20042;-81
2021/08/26 00:23:49;;;;;;;7.57;2.00;;;;;;;14.15;100.00;100564.66;4930594;28;20046;-83
2021/08/26 00:26:15;;;;;;;4.93;2.00;;;;;;;14.16;100.00;100561.13;4954795;28;20054;-80
2021/08/26 00:28:42;;;;;;;9.45;2.17;;;;;;;14.13;100.00;100567.34;4949036;28;20673;-79
2021/08/26 00:31:09;;;;;;;6.95;1.88;;;;;;;14.15;100.00;100562.88;4952359;28;20053;-80
2021/08/26 00:33:35;;;;;;;5.72;2.25;;;;;;;14.14;100.00;100560.28;4955152;28;20248;-77
2021/08/26 00:36:02;;;;;;;4.25;1.55;;;;;;;14.10;100.00;100546.34;4951907;28;20081;-80
2021/08/26 00:38:28;;;;;;;6.55;2.67;;;;;;;14.06;100.00;100535.00;4951328;28;20051;-77
2021/08/26 00:40:59;;;;;;;5.70;1.90;;;;;;;14.06;100.00;100549.94;4948449;28;20653;-83
2021/08/26 00:43:28;;;;;;;7.13;3.03;;;;;;;14.04;100.00;100546.47;4950517;28;20042;-83
2021/08/26 00:46:00;;;;;;;12.27;2.95;;;;;;;14.01;100.00;100555.31;4972118;28;20230;-81
2021/08/26 00:48:27;;;;;;;14.65;3.45;;;;;;;14.00;100.00;100550.09;4955459;28;20064;-78
2021/08/26 00:50:56;;;;;;;6.53;2.38;;;;;;;13.99;100.00;100554.50;4956965;28;20050;-83
2021/08/26 00:53:25;;;;;;;7.72;1.70;;;;;;;13.99;100.00;100553.66;4966309;28;20069;-83
2021/08/26 00:55:52;;;;;;;9.82;2.83;;;;;;;13.99;100.00;100554.50;4961514;28;20100;-81
2021/08/26 00:58:21;;;;;;;7.45;2.50;;;;;;;14.00;100.00;100553.59;4954617;28;21910;-79
2021/08/26 01:00:51;;;;;;;11.38;2.80;;;;;;;13.98;100.00;100547.50;4957663;28;20910;-81
2021/08/26 01:03:24;;;;;;;6.68;1.83;;;;;;;13.99;100.00;100543.13;4954532;28;20196;-80
2021/08/26 01:05:56;;;;;;;9.45;2.88;;;;;;;13.95;100.00;100542.34;4954081;28;20050;-78
2021/08/26 01:08:37;;;;;;;6.57;2.72;;;;;;;13.96;100.00;100535.28;4956358;28;20060;-81
2021/08/26 01:11:06;;;;;;;8.20;2.97;;;;;;;13.93;100.00;100530.13;4968828;28;20907;-82
2021/08/26 01:13:41;;;;;;;6.10;2.28;;;;;;;13.92;100.00;100531.84;4955948;28;20409;-82
2021/08/26 01:16:13;;;;;;;6.50;2.30;;;;;;;13.92;100.00;100537.13;4968576;28;20065;-84
2021/08/26 01:18:46;;;;;;;8.52;2.35;;;;;;;13.93;100.00;100530.97;4959677;28;20046;-80
2021/08/26 01:21:17;;;;;;;7.15;2.83;;;;;;;13.92;100.00;100529.22;4959868;28;20438;-84
2021/08/26 01:23:51;;;;;;;10.65;3.17;;;;;;;13.92;100.00;100523.97;4970701;28;20057;-83
2021/08/26 01:26:24;;;;;;;5.82;3.00;;;;;;;13.95;100.00;100528.28;4959543;28;20042;-83
2021/08/26 01:28:54;;;;;;;14.68;3.30;;;;;;;13.93;100.00;100525.69;4969394;28;20420;-80
2021/08/26 01:31:22;;;;;;;13.90;2.97;;;;;;;13.92;100.00;100523.13;4953851;28;20054;-78
2021/08/26 01:33:56;;;;;;;9.93;2.28;;;;;;;13.95;100.00;100525.66;4961810;28;20046;-80
2021/08/26 01:36:34;;;;;;;15.48;2.80;;;;;;;13.95;100.00;100516.00;4965864;28;20978;-83
2021/08/26 01:39:07;;;;;;;9.30;2.42;;;;;;;13.95;100.00;100521.28;4956495;28;20046;-83
2021/08/26 01:41:51;;;;;;;11.38;3.30;;;;;;;13.95;100.00;100516.00;4966023;28;20061;-82
2021/08/26 01:44:19;;;;;;;;;;;;;;;13.97;100.00;100521.22;4941882;28;20053;-82
2021/08/26 01:46:46;;;;;;;5.72;3.42;;;;;;;13.98;100.00;100512.44;4954911;28;20934;-79
2021/08/26 01:49:12;;;;;;;8.32;2.88;;;;;;;14.00;100.00;100515.88;4971762;28;20061;-80
2021/08/26 01:51:41;;;;;;;7.95;2.88;;;;;;;14.01;100.00;100513.19;4942785;28;20519;-77
2021/08/26 01:54:09;;;;;;;12.32;2.88;;;;;;;13.98;100.00;100505.41;4970576;28;20312;-80
2021/08/26 01:56:38;;;;;;;8.95;2.72;;;;;;;13.97;100.00;100510.72;4957311;28;20088;-78
2021/08/26 01:59:05;;;;;;;11.95;3.00;;;;;;;13.95;100.00;100505.50;4952999;28;20485;-77
2021/08/26 02:01:32;;;;;;;6.57;2.55;;;;;;;13.94;100.00;100508.16;4968845;28;20068;-78
2021/08/26 02:03:58;;;;;;;7.05;2.38;;;;;;;13.93;100.00;100512.53;4940993;28;20422;-82
2021/08/26 02:06:26;;;;;;;9.32;2.58;;;;;;;13.95;100.00;100509.88;4968010;28;20648;-79
2021/08/26 02:08:52;;;;;;;14.05;3.25;;;;;;;13.99;100.00;100503.66;4959110;28;20050;-82
2021/08/26 02:11:19;;;;;;;10.40;2.63;;;;;;;13.99;100.00;100499.25;4965351;28;20046;-81
2021/08/26 02:13:45;;;;;;;6.30;3.05;;;;;;;13.98;100.00;100500.13;4943525;28;20050;-83
2021/08/26 02:16:14;;;;;;;14.55;2.92;;;;;;;13.93;100.00;100494.13;4959461;28;20076;-82
2021/08/26 02:18:43;;;;;;;10.60;2.67;;;;;;;13.88;100.00;100489.00;4968934;28;20051;-83
2021/08/26 02:21:10;;;;;;;9.82;3.17;;;;;;;13.81;100.00;100490.03;4971380;28;20084;-81
2021/08/26 02:23:36;;;;;;;10.35;3.58;;;;;;;13.76;100.00;100483.16;4954009;28;20049;-80
2021/08/26 02:26:03;;;;;;;12.80;3.47;;;;;;;13.68;100.00;100494.72;4953970;28;20393;-78
2021/08/26 02:28:32;;;;;;;9.90;2.88;;;;;;;13.63;100.00;100495.75;4961753;28;20058;-81
2021/08/26 02:30:59;;;;;;;12.07;3.08;;;;;;;13.61;100.00;100492.28;4952038;28;20070;-83
2021/08/26 02:33:25;;;;;;;7.30;3.17;;;;;;;13.62;100.00;100494.88;4957759;28;20039;-79
2021/08/26 02:35:52;;;;;;;12.13;2.80;;;;;;;13.66;100.00;100493.94;4970326;28;22102;-81
2021/08/26 02:38:19;;;;;;;12.23;3.08;;;;;;;13.72;100.00;100495.53;4958859;28;20053;-79
2021/08/26 02:40:45;;;;;;;7.93;3.05;;;;;;;13.73;100.00;100495.50;4967784;28;20520;-77
2021/08/26 02:43:12;;;;;;;8.82;3.35;;;;;;;13.77;100.00;100490.16;4959974;28;20058;-79
2021/08/26 02:45:38;;;;;;;14.15;3.38;;;;;;;13.75;100.00;100495.44;4958930;28;20572;-79
2021/08/26 02:48:05;;;;;;;14.80;3.45;;;;;;;13.71;100.00;100497.31;4965906;28;20098;-81
2021/08/26 02:50:32;;;;;;;8.27;2.72;;;;;;;13.66;100.00;100493.03;4959891;28;20057;-78
2021/08/26 02:52:58;;;;;;;7.50;2.53;;;;;;;13.65;100.00;100493.94;4954963;28;20439;-82
2021/08/26 02:55:25;;;;;;;9.70;3.35;;;;;;;13.64;100.00;100493.09;4972060;28;20057;-79
2021/08/26 02:57:52;;;;;;;9.90;3.30;;;;;;;13.57;100.00;100491.50;4957591;28;20430;-80
2021/08/26 03:00:18;;;;;;;9.85;3.28;;;;;;;13.52;100.00;100494.25;4935600;28;20153;-79
2021/08/26 03:02:45;;;;;;;11.57;3.35;;;;;;;13.48;100.00;100499.59;4952410;28;20050;-84
2021/08/26 03:05:11;;;;;;;14.25;3.25;;;;;;;13.44;100.00;100497.94;4954866;28;20043;-81
2021/08/26 03:07:38;;;;;;;14.73;3.60;;;;;;;13.43;100.00;100496.22;4954381;28;20043;-81
2021/08/26 03:10:06;;;;;;;8.02;3.13;;;;;;;13.43;100.00;100504.09;4959120;28;20656;-79
2021/08/26 03:12:33;;;;;;;12.88;3.05;;;;;;;13.44;100.00;100498.84;4951060;28;20507;-78
2021/08/26 03:15:00;;;;;;;10.90;3.25;;;;;;;13.48;100.00;100500.47;4959731;28;20042;-81
2021/08/26 03:17:26;;;;;;;8.88;2.90;;;;;;;13.55;100.00;100496.78;4936303;28;20045;-78
2021/08/26 03:19:53;;;;;;;13.05;3.67;;;;;;;13.56;100.00;100490.63;4958651;28;20061;-81
2021/08/26 03:22:19;;;;;;;15.15;3.10;;;;;;;13.54;100.00;100491.56;4958625;28;20046;-80
2021/08/26 03:24:46;;;;;;;14.88;3.40;;;;;;;13.51;100.00;100484.63;4964714;28;20065;-78
2021/08/26 03:27:13;;;;;;;13.77;3.03;;;;;;;13.47;100.00;100484.75;4956210;28;20060;-77
2021/08/26 03:29:40;;;;;;;21.10;3.75;;;;;;;13.36;100.00;100495.47;4948916;28;20058;-78
2021/08/26 03:32:07;;;;;;;8.55;2.70;;;;;;;13.28;100.00;100500.03;4941914;28;20869;-80
2021/08/26 03:34:33;;;;;;;9.70;4.30;;;;;;;13.27;100.00;100501.81;4956817;28;20053;-79
2021/08/26 03:37:00;;;;;;;11.93;2.80;;;;;;;13.26;100.00;100500.09;4950607;28;20524;-77
2021/08/26 03:39:27;;;;;;;17.40;4.47;;;;;;;13.23;100.00;100508.00;4955449;28;20038;-78
2021/08/26 03:41:53;;;;;;;16.52;3.50;;;;;;;13.25;100.00;100508.84;4950715;28;20054;-80
2021/08/26 03:44:20;;;;;;;11.20;3.03;;;;;;;13.27;100.00;100508.81;4970471;28;20069;-81
2021/08/26 03:46:46;;;;;;;10.00;3.20;;;;;;;13.29;100.00;100505.25;4951531;28;20073;-80
2021/08/26 03:49:13;;;;;;;8.18;2.67;;;;;;;13.28;100.00;100500.91;4950071;28;20047;-79
2021/08/26 03:51:40;;;;;;;14.25;3.90;;;;;;;13.27;100.00;100508.81;4954358;28;20049;-79
2021/08/26 03:54:06;;;;;;;9.73;2.90;;;;;;;13.24;100.00;100507.13;4949614;28;20039;-78
2021/08/26 03:56:33;;;;;;;11.48;2.95;;;;;;;13.21;100.00;100499.31;4959197;28;20058;-83
2021/08/26 03:59:01;;;;;;;10.27;3.22;;;;;;;13.22;100.00;100501.06;4955433;28;20089;-80
2021/08/26 04:01:28;;;;;;;12.07;3.40;;;;;;;13.21;100.00;100492.28;4933903;28;20228;-80
2021/08/26 04:03:54;;;;;;;10.52;3.08;;;;;;;13.18;100.00;100496.75;4955536;28;20048;-80
2021/08/26 04:06:21;;;;;;;9.80;3.13;;;;;;;13.14;100.00;100495.97;4952727;28;20050;-78
2021/08/26 04:08:47;;;;;;;10.95;3.17;;;;;;;13.12;100.00;100495.13;4951110;28;20061;-83
2021/08/26 04:11:15;;;;;;;13.05;3.20;;;;;;;13.08;100.00;100491.69;4934820;28;20050;-82
2021/08/26 04:13:41;;;;;;;16.58;3.45;;;;;;;13.08;100.00;100491.69;4936839;28;20701;-82
2021/08/26 04:16:08;;;;;;;8.77;2.92;;;;;;;13.09;100.00;100489.94;4952508;28;20058;-81
2021/08/26 04:18:34;;;;;;;14.98;3.75;;;;;;;13.08;100.00;100485.59;4949157;28;20420;-82
2021/08/26 04:21:01;;;;;;;10.80;3.20;;;;;;;13.04;100.00;100483.94;4954988;28;20572;-78
2021/08/26 04:23:28;;;;;;;13.65;3.17;;;;;;;13.01;100.00;100484.84;4950381;28;20231;-78
2021/08/26 04:25:54;;;;;;;8.93;2.90;;;;;;;12.96;100.00;100484.09;4954473;28;20050;-80
2021/08/26 04:28:21;;;;;;;17.35;4.28;;;;;;;12.98;100.00;100486.69;4964730;28;20050;-81
2021/08/26 04:30:48;;;;;;;12.20;3.97;;;;;;;13.01;100.00;100476.09;4933328;28;20062;-80
2021/08/26 04:33:14;;;;;;;15.93;3.42;;;;;;;13.02;100.00;100478.72;4971547;28;20056;-80
2021/08/26 04:35:41;;;;;;;15.23;3.47;;;;;;;13.04;100.00;100490.03;4948320;28;20046;-83
2021/08/26 04:38:08;;;;;;;14.95;3.67;;;;;;;13.02;100.00;100480.44;4955106;28;21497;-79
2021/08/26 04:40:34;;;;;;;12.68;3.00;;;;;;;12.99;100.00;100483.16;4956909;28;20054;-82
2021/08/26 04:43:01;;;;;;;14.05;3.05;;;;;;;13.00;100.00;100483.13;4954236;28;20085;-81
2021/08/26 04:45:28;;;;;;;7.07;2.67;;;;;;;13.02;100.00;100475.19;4957711;28;20798;-82
2021/08/26 04:47:54;;;;;;;11.98;2.75;;;;;;;13.05;100.00;100485.66;4949170;28;20057;-82
2021/08/26 04:50:22;;;;;;;12.60;3.03;;;;;;;13.16;100.00;100490.66;4950404;28;20157;-80
2021/08/26 04:52:49;;;;;;;15.98;4.03;;;;;;;13.30;100.00;100482.47;4953005;28;20050;-82
2021/08/26 04:55:15;;;;;;;11.00;3.10;;;;;;;13.39;100.00;100475.25;4948680;28;20679;-78
2021/08/26 04:57:42;;;;;;;8.52;3.58;;;;;;;13.50;100.00;100482.03;4954972;28;20757;-79
2021/08/26 05:00:10;;;;;;;9.45;3.03;;;;;;;13.57;100.00;100478.34;4966591;28;20043;-80
2021/08/26 05:02:37;;;;;;;14.50;3.65;;;;;;;13.65;100.00;100486.94;4948343;28;20054;-81
2021/08/26 05:05:05;;;;;;;11.40;3.00;;;;;;;13.70;100.00;100482.41;4953406;28;20062;-81
2021/08/26 05:07:32;;;;;;;12.68;3.55;;;;;;;13.75;100.00;100482.28;4948530;28;20050;-79
2021/08/26 05:09:58;;;;;;;12.38;3.72;;;;;;;13.80;100.00;100482.19;4971152;28;20125;-83
2021/08/26 05:12:25;;;;;;;15.15;3.63;;;;;;;13.83;100.00;100488.25;4948227;28;20039;-81
2021/08/26 05:14:51;;;;;;;9.88;2.72;;;;;;;13.86;100.00;100484.69;4938493;28;20414;-82
2021/08/26 05:17:18;;;;;;;13.65;3.42;;;;;;;13.88;100.00;100491.63;4967773;28;20085;-80
2021/08/26 05:19:45;;;;;;;11.07;3.28;;;;;;;13.90;100.00;100489.81;4947661;28;20084;-80
2021/08/26 05:22:15;;;;;;;13.27;3.83;;;;;;;13.92;99.67;100492.38;4959875;28;20035;-77
2021/08/26 05:24:42;;;;;;;16.45;4.50;;;;;;;13.94;99.75;100497.63;4952017;28;20065;-79
2021/08/26 05:27:09;;;;;;;20.00;4.50;;;;;;;13.99;99.53;100490.50;4954040;28;20050;-86
2021/08/26 05:29:35;;;;;;;14.38;3.28;;;;;;;14.03;99.23;100492.13;4964589;28;20066;-82
2021/08/26 05:32:03;;;;;;;15.55;4.05;;;;;;;14.09;98.92;100497.22;4957642;28;20050;-79
2021/08/26 05:34:29;;;;;;;12.98;3.20;;;;;;;14.10;98.85;100495.47;4961281;28;20474;-81
2021/08/26 05:36:56;;;;;;;8.90;3.05;;;;;;;14.14;99.03;100494.47;4955667;28;20050;-78
2021/08/26 05:39:23;;;;;;;12.60;3.40;;;;;;;14.19;98.52;100492.59;4943363;28;20057;-82
2021/08/26 05:41:49;;;;;;;15.43;3.50;;;;;;;14.21;98.26;100486.38;4955067;28;20054;-83
2021/08/26 05:44:17;;;;;;;9.68;2.75;;;;;;;14.26;97.90;100491.50;4956756;28;20089;-82
2021/08/26 05:46:46;;;;;;;15.50;4.15;;;;;;;14.31;97.54;100494.03;4957571;28;20050;-83
2021/08/26 05:49:13;;;;;;;10.63;3.78;;;;;;;14.34;97.50;100491.31;4952781;28;20061;-82
2021/08/26 05:51:40;;;;;;;17.00;4.15;;;;;;;14.38;97.43;100490.34;4954860;28;20058;-79
2021/08/26 05:54:07;;;;;;;15.05;4.72;;;;;;;14.41;96.98;100495.50;4969307;28;20145;-81
2021/08/26 05:56:33;;;;;;;12.38;4.00;;;;;;;14.44;96.95;100495.41;4958240;28;20089;-79
2021/08/26 05:59:00;;;;;;;8.82;3.83;;;;;;;14.49;96.39;100490.88;4958418;28;20608;-83
2021/08/26 06:01:31;;;;;;;13.52;4.35;;;;;;;14.56;96.20;100495.09;4951605;28;20458;-80
2021/08/26 06:03:58;;;;;;;15.50;4.40;;;;;;;14.63;95.84;100501.03;4956646;28;20426;-80
2021/08/26 06:06:25;;;;;;;12.82;3.45;;;;;;;14.68;95.95;100493.06;4969768;28;20042;-80
2021/08/26 06:08:52;;;;;;;13.32;3.08;;;;;;;14.74;95.71;100499.91;4944274;28;20074;-83
2021/08/26 06:11:18;;;;;;;11.27;3.03;;;;;;;14.76;95.22;100496.31;4961255;28;20043;-82
2021/08/26 06:13:45;;;;;;;10.60;3.70;;;;;;;14.77;95.51;100500.69;4951884;28;20074;-81
2021/08/26 06:16:12;;;;;;;7.50;2.95;;;;;;;14.78;95.38;100501.53;4955312;28;20053;-80
2021/08/26 06:18:39;;;;;;;12.63;4.65;;;;;;;14.82;95.20;100497.91;4947529;28;20414;-83
2021/08/26 06:21:05;;;;;;;14.65;3.65;;;;;;;14.82;94.92;100495.28;4970908;28;20043;-80
2021/08/26 06:23:32;;;;;;;15.77;3.90;;;;;;;14.82;94.88;100490.88;4954034;28;20058;-84
2021/08/26 06:25:59;;;;;;;15.90;3.85;;;;;;;14.87;94.88;100488.09;4929937;28;20057;-84
2021/08/26 06:28:25;;;;;;;17.38;4.75;;;;;;;14.91;94.37;100484.44;4954691;28;20473;-83
2021/08/26 06:30:52;;;;;;;10.82;3.55;;;;;;;14.98;94.41;100486.00;4963018;28;20149;-79
2021/08/26 06:33:19;;;;;;;13.02;3.60;;;;;;;15.05;94.06;100492.81;4953720;28;20045;-81
2021/08/26 06:35:45;;;;;;;14.50;3.65;;;;;;;15.10;93.68;100487.41;4957130;28;20057;-84
2021/08/26 06:38:12;;;;;;;10.18;3.60;;;;;;;15.16;93.42;100483.72;4926792;28;20042;-82
2021/08/26 06:40:38;;;;;;;14.35;3.50;;;;;;;15.20;93.11;100487.97;4967580;28;20049;-80
2021/08/26 06:43:05;;;;;;;14.20;4.32;;;;;;;15.22;92.96;100487.03;4957725;28;20065;-82
2021/08/26 06:45:32;;;;;;;9.07;3.17;;;;;;;15.26;93.19;100489.59;4947407;28;20619;-83
2021/08/26 06:47:58;;;;;;;11.60;3.92;;;;;;;15.30;93.16;100488.56;4952391;28;20057;-84
2021/08/26 06:50:25;;;;;;;12.15;4.13;;;;;;;15.42;92.63;100488.16;4949666;28;20233;-81
2021/08/26 06:52:52;;;;;;;11.13;3.50;;;;;;;15.50;91.95;100490.56;4954177;28;20110;-81
2021/08/26 06:55:18;;;;;;;14.98;3.97;;;;;;;15.59;91.23;100505.25;4947889;28;20051;-84
2021/08/26 06:57:45;;;;;;;9.40;3.22;;;;;;;15.61;91.44;100508.72;4950876;28;20054;-82
2021/08/26 07:00:12;;;;;;;13.93;4.53;;;;;;;15.63;91.38;100509.50;4931737;28;21213;-84
2021/08/26 07:02:39;;;;;;;19.83;3.97;;;;;;;15.74;91.12;100510.03;4967552;28;22818;-80
2021/08/26 07:05:06;;;;;;;15.35;3.53;;;;;;;15.91;90.57;100500.72;4954287;28;20533;-80
2021/08/26 07:07:33;;;;;;;17.75;5.45;;;;;;;16.07;89.24;100499.28;4950987;28;20070;-83
2021/08/26 07:10:00;;;;;;;13.35;3.92;;;;;;;16.21;89.06;100499.66;4952463;28;20047;-78
2021/08/26 07:12:30;;;;;;;20.45;5.15;;;;;;;16.31;88.69;100505.50;4951925;28;20062;-81
2021/08/26 07:15:00;;;;;;;16.85;5.68;;;;;;;16.42;88.19;100498.97;4969035;28;20042;-80
2021/08/26 07:17:27;;;;;;;13.82;4.35;;;;;;;16.51;87.85;100503.91;4950328;28;20511;-81
2021/08/26 07:19:53;;;;;;;13.38;4.22;;;;;;;16.83;87.18;100507.16;4948841;28;20038;-82
2021/08/26 07:22:20;;;;;;;14.38;4.30;;;;;;;17.14;84.75;100498.97;4969472;28;20133;-83
2021/08/26 07:24:46;;;;;;;11.32;4.75;;;;;;;17.27;83.28;100509.91;4963629;28;20126;-81
2021/08/26 07:27:13;;;;;;;11.95;4.00;;;;;;;17.23;83.00;100497.72;4953204;28;21073;-81
2021/08/26 07:29:40;;;;;;;10.68;3.60;;;;;;;17.25;83.73;100510.88;4966714;28;20055;-82
2021/08/26 07:32:06;;;;;;;12.63;3.58;;;;;;;17.16;83.90;100502.41;4946528;28;20062;-77
2021/08/26 07:34:33;;;;;;;12.15;3.83;;;;;;;17.13;83.72;100499.88;4965496;28;20038;-79
2021/08/26 07:37:00;;;;;;;9.18;4.18;;;;;;;17.04;83.95;100502.88;4932559;28;20494;-82
2021/08/26 07:39:26;;;;;;;13.45;4.03;;;;;;;16.92;84.54;100490.13;4949399;28;20069;-82
2021/08/26 07:41:53;;;;;;;19.25;4.50;;;;;;;16.88;84.68;100484.03;4967180;28;20046;-79
2021/08/26 07:44:20;;;;;;;16.35;5.05;;;;;;;16.93;83.86;100482.13;4949488;28;20051;-82
2021/08/26 07:46:46;;;;;;;10.57;4.03;;;;;;;16.93;84.38;100474.19;4947225;28;20050;-81
2021/08/26 07:49:13;;;;;;;9.48;3.95;;;;;;;17.02;83.29;100472.97;4943410;28;20089;-81
2021/08/26 07:51:40;;;;;;;15.13;4.93;;;;;;;17.08;83.31;100474.50;4949467;28;20053;-78
2021/08/26 07:54:06;;;;;;;10.95;4.20;;;;;;;17.12;83.21;100471.69;4950186;28;20134;-78
2021/08/26 07:56:35;;;;;;;27.27;5.20;;;;;;;17.16;82.89;100475.09;4944605;28;20497;-79
2021/08/26 07:59:01;;;;;;;15.20;5.03;;;;;;;17.14;83.18;100480.44;4948721;28;20065;-79
2021/08/26 08:01:28;;;;;;;20.52;4.50;;;;;;;17.20;82.54;100485.47;4959800;28;20402;-80
2021/08/26 08:03:54;;;;;;;16.73;4.50;;;;;;;17.36;82.20;100483.09;4952346;28;20445;-82
2021/08/26 08:06:21;;;;;;;13.55;4.20;;;;;;;17.51;81.66;100480.75;4936527;28;20261;-82
2021/08/26 08:08:48;;;;;;;12.50;3.83;;;;;;;17.66;81.16;100480.13;4947081;28;20501;-83
2021/08/26 08:11:28;;;;;;;12.50;4.10;;;;;;;17.73;79.80;100480.75;4949535;28;21063;-79
2021/08/26 08:13:55;;;;;;;12.45;4.28;;;;;;;17.82;79.95;100479.47;4961263;28;20762;-80
2021/08/26 08:16:23;;;;;;;16.42;3.90;;;;;;;18.24;78.79;100483.91;4953313;28;20058;-83
2021/08/26 08:18:49;;;;;;;11.88;4.43;;;;;;;18.52;77.50;100486.22;4946596;28;20058;-83
2021/08/26 08:21:16;;;;;;;16.17;4.43;;;;;;;18.50;75.97;100476.59;4933430;28;20077;-84
2021/08/26 08:23:43;;;;;;;11.38;4.47;;;;;;;18.66;76.19;100485.56;4944587;28;20043;-82
2021/08/26 08:26:11;;;;;;;10.93;4.30;;;;;;;18.93;75.03;100485.28;4951506;28;20054;-86
2021/08/26 08:28:39;;;;;;;10.27;3.42;;;;;;;19.20;74.14;100479.56;4950123;28;20338;-80
2021/08/26 08:31:06;;;;;;;9.55;4.00;;;;;;;19.40;73.13;100475.97;4940832;28;20666;-81
2021/08/26 08:33:35;;;;;;;11.13;4.22;;;;;;;19.48;72.67;100478.25;4952443;28;20078;-80
2021/08/26 08:36:05;;;;;;;16.27;4.43;;;;;;;19.30;71.97;100491.47;4954488;28;20489;-84
2021/08/26 08:38:32;;;;;;;14.65;4.38;;;;;;;19.03;72.93;100492.78;4964022;28;20501;-80
2021/08/26 08:40:58;;;;;;;11.02;5.18;;;;;;;18.74;73.75;100501.13;4953340;28;20579;-81
2021/08/26 08:43:25;;;;;;;18.70;5.63;;;;;;;18.49;74.62;100501.38;4949815;28;20114;-85
2021/08/26 08:45:53;;;;;;;12.95;5.10;;;;;;;18.32;75.96;100502.13;4950158;28;20194;-83
2021/08/26 08:48:21;;;;;;;16.40;5.32;;;;;;;18.25;76.40;100505.97;4952956;28;20049;-78
2021/08/26 08:50:48;;;;;;;16.67;5.03;;;;;;;18.11;76.47;100502.13;4962885;28;20437;-82
2021/08/26 08:53:17;;;;;;;14.82;4.85;;;;;;;18.08;76.67;100502.25;4949005;28;20587;-82
2021/08/26 08:55:46;;;;;;;17.08;4.78;;;;;;;18.18;76.33;100494.75;4946560;28;20058;-80
2021/08/26 08:58:14;;;;;;;17.48;4.43;;;;;;;18.36;75.65;100485.16;4966172;28;20632;-79
2021/08/26 09:00:44;;;;;;;12.57;4.13;;;;;;;18.65;74.41;100491.78;4952405;28;20062;-85
2021/08/26 09:03:11;;;;;;;18.02;5.75;;;;;;;18.92;73.66;100504.75;4944643;28;20054;-79
2021/08/26 09:05:57;;;;;;;8.68;4.25;;;;;;;19.26;71.82;100499.66;4936017;28;20323;-78
2021/08/26 09:08:27;;;;;;;7.05;3.50;;;;;;;19.54;70.97;100501.84;4936809;28;20587;-81
2021/08/26 09:11:11;;;;;;;12.68;4.43;;;;;;;19.96;69.82;100510.47;4956577;28;20125;-82
2021/08/26 09:13:38;;;;;;;10.40;3.67;;;;;;;20.30;68.52;100512.22;4950999;28;20039;-77
2021/08/26 09:16:05;;;;;;;13.05;3.70;;;;;;;20.46;67.83;100506.97;4957236;28;20054;-81
2021/08/26 09:18:35;;;;;;;13.40;4.38;;;;;;;20.50;65.33;100503.19;4955215;28;20046;-84
2021/08/26 09:21:13;;;;;;;10.85;3.90;;;;;;;20.33;66.30;100512.06;4950767;28;20054;-82
2021/08/26 09:23:59;;;;;;;12.30;4.40;;;;;;;20.06;67.34;100495.75;4956595;28;20108;-81
2021/08/26 09:26:29;;;;;;;10.55;3.17;;;;;;;19.89;67.60;100493.09;4949554;28;20054;-79
2021/08/26 09:29:02;;;;;;;13.15;4.40;;;;;;;19.70;68.49;100493.13;4969763;28;20583;-82
2021/08/26 09:31:30;;;;;;;12.35;4.47;;;;;;;19.66;68.39;100490.63;4965668;28;20055;-80
2021/08/26 09:34:04;;;;;;;8.77;3.33;;;;;;;19.62;68.32;100489.06;4955510;28;20453;-81
2021/08/26 09:36:36;;;;;;;;;;;;;;;19.65;67.28;100488.91;4939980;28;20051;-82
2021/08/26 09:39:18;;;;;;;12.80;3.47;;;;;;;20.02;67.13;100480.06;4936196;28;19949;-79
2021/08/26 09:41:53;;;;;;;11.90;3.67;;;;;;;20.41;65.68;100482.41;4956875;28;20447;-81
2021/08/26 09:44:29;;;;;;;8.00;3.00;;;;;;;20.64;64.66;100483.84;4951122;28;20046;-82
2021/08/26 09:47:00;;;;;;;13.30;4.35;;;;;;;20.78;64.25;100491.13;4954223;28;20066;-84
2021/08/26 09:49:29;;;;;;;9.57;3.25;;;;;;;20.68;62.31;100489.88;4950576;28;20105;-80
2021/08/26 09:52:16;;;;;;;11.90;4.50;;;;;;;20.54;63.59;100479.13;4953621;28;20734;-81
2021/08/26 09:54:51;;;;;;;7.82;3.20;;;;;;;20.38;64.23;100481.75;4956805;28;20065;-84
2021/08/26 09:57:30;;;;;;;7.85;3.10;;;;;;;20.29;64.63;100486.59;4965593;28;20046;-85
2021/08/26 10:00:01;;;;;;;20.08;4.10;;;;;;;20.19;64.84;100488.00;4955823;28;20090;-80
2021/08/26 10:02:30;;;;;;;11.35;3.67;;;;;;;20.05;65.25;100490.50;4931495;28;20066;-83
2021/08/26 10:04:58;;;;;;;7.15;3.25;;;;;;;19.94;65.56;100477.78;4937495;28;20055;-84
2021/08/26 10:07:27;;;;;;;11.50;3.80;;;;;;;19.91;65.75;100475.28;4944439;28;20059;-85
2021/08/26 10:09:55;;;;;;;15.77;4.05;;;;;;;19.80;65.92;100476.66;4970379;28;20053;-82
2021/08/26 10:12:22;;;;;;;10.70;3.80;;;;;;;19.53;66.19;100480.66;4952669;28;20056;-85
2021/08/26 10:14:53;;;;;;;9.38;3.65;;;;;;;19.29;67.53;100492.41;4948173;28;20157;-80
2021/08/26 10:17:20;;;;;;;7.47;3.30;;;;;;;19.08;68.48;100488.13;4951290;28;20169;-82
2021/08/26 10:19:49;;;;;;;8.65;4.00;;;;;;;18.89;70.59;100504.91;4964521;28;20426;-83
2021/08/26 10:22:17;;;;;;;9.23;3.55;;;;;;;18.63;72.59;100511.34;4952218;28;20901;-79
2021/08/26 10:24:43;;;;;;;11.45;5.75;;;;;;;18.34;76.11;100506.44;4954167;28;20046;-80
2021/08/26 10:27:17;;;;;;;11.80;3.95;;;;;;;17.78;80.66;100518.47;4954649;28;20124;-86
2021/08/26 10:29:47;;;;;;;6.10;2.53;;;;;;;17.18;81.46;100528.78;4967760;28;20071;-82
2021/08/26 10:32:24;;;;;;;9.48;3.90;;;;;;;16.53;88.54;100520.56;4947069;28;20062;-81
2021/08/26 10:35:15;;;;;;;10.43;4.15;;;;;;;15.90;92.28;100528.03;4954973;28;20062;-83
2021/08/26 10:37:54;;;;;;;11.68;4.85;;;;;;;15.61;93.91;100537.72;4940980;28;20623;-87
2021/08/26 10:40:27;;;;;;;11.05;4.60;;;;;;;15.44;94.45;100527.72;4969261;28;20054;-83
2021/08/26 10:42:56;;;;;;;9.30;4.95;;;;;;;15.31;95.05;100514.88;4955696;28;20477;-79
2021/08/26 10:45:35;;;;;;;15.05;6.40;;;;;;;15.18;95.95;100511.75;4949701;28;20207;-84
2021/08/26 10:48:02;;;;;;;7.40;2.60;;;;;;;15.10;95.33;100499.75;4955374;28;20133;-80
2021/08/26 10:50:37;;;;;;;6.68;1.95;;;;;;;14.97;94.63;100508.00;4965259;28;20065;-80
2021/08/26 10:53:30;;;;;;;2.97;2.30;;;;;;;14.85;95.73;100521.56;4951485;28;20146;-81
2021/08/26 10:56:17;;;;;;;6.60;3.03;;;;;;;14.80;95.34;100513.75;4954269;28;20050;-81
2021/08/26 10:58:45;;;;;;;3.00;1.95;;;;;;;14.91;95.11;100508.16;4976634;28;20151;-85
2021/08/26 11:01:32;;;;;;;5.15;2.20;;;;;;;15.22;95.42;100510.75;4953760;28;20201;-83
2021/08/26 11:04:08;;;;;;;4.55;1.92;;;;;;;15.72;94.39;100509.19;4955786;28;20065;-86
2021/08/26 11:06:36;;;;;;;5.32;2.47;;;;;;;16.29;91.96;100503.81;4955028;28;20054;-84
2021/08/26 11:09:12;;;;;;;5.28;2.38;;;;;;;16.56;90.44;100485.25;4951963;28;20656;-80
2021/08/26 11:11:45;;;;;;;6.20;2.78;;;;;;;16.67;89.97;100483.06;4971908;28;20042;-81
2021/08/26 11:14:15;;;;;;;4.75;2.67;;;;;;;16.77;89.78;100495.03;4937481;28;20047;-79
2021/08/26 11:16:51;;;;;;;13.48;3.40;;;;;;;16.76;89.79;100495.94;4946710;28;21282;-80
2021/08/26 11:19:18;;;;;;;12.48;4.07;;;;;;;16.72;90.26;100489.06;4957696;28;20050;-83
2021/08/26 11:21:44;;;;;;;7.93;3.92;;;;;;;16.78;90.83;100493.22;4949791;28;20153;-81
2021/08/26 11:24:18;;;;;;;9.38;3.17;;;;;;;16.82;90.57;100484.28;4972879;28;20429;-83
2021/08/26 11:27:04;;;;;;;10.10;3.92;;;;;;;16.78;90.89;100496.75;4970424;28;20042;-85